Time,TemperatureF,DewpointF,PressureIn,WindDirection,WindDirectionDegrees,WindSpeedMPH,WindSpeedGustMPH,Humidity,HourlyPrecipIn,Conditions,Clouds,dailyrainin,SoftwareType,DateUTC
2013-02-01 00:00:00,37.7,27.4,30.30,SW,227,3.0,3.0,66,0.00,CLR,,4.51,WeatherDisplay:10.37,2013-02-01 05:00:00,
2013-02-01 00:02:00,37.6,27.3,30.30,WSW,237,3.5,3.5,66,0.00,RA,,0.00,WeatherDisplay:10.37,2013-02-01 05:02:00,
2013-02-01 00:07:00,37.6,27.3,30.30,SW,214,0.0,0.0,66,0.00,RA,,0.00,WeatherDisplay:10.37,2013-02-01 05:07:00,
2013-02-01 00:12:00,37.5,27.2,30.29,SW,232,3.5,3.5,66,0.00,CLR,,0.00,WeatherDisplay:10.37,2013-02-01 05:12:00,
2013-02-01 00:17:00,37.4,27.1,30.29,SSW,212,4.6,4.6,66,0.00,CLR,,0.00,WeatherDisplay:10.37,2013-02-01 05:17:00,
2013-02-01 00:22:00,37.5,27.5,30.28,SSW,200,7.0,7.0,67,0.00,CLR,,0.00,WeatherDisplay:10.37,2013-02-01 05:22:00,
2013-02-01 00:27:00,37.5,27.2,30.28,WSW,248,9.2,9.2,66,0.00,CLR,,0.00,WeatherDisplay:10.37,2013-02-01 05:27:00,
2013-02-01 00:32:00,37.8,27.8,30.28,SW,226,5.8,5.8,67,0.00,CLR,,0.00,WeatherDisplay:10.37,2013-02-01 05:32:00,
2013-02-01 00:37:00,37.9,27.2,30.28,SW,229,3.5,3.5,65,0.00,CLR,,0.00,WeatherDisplay:10.37,2013-02-01 05:37:00,
2013-02-01 00:42:00,38.2,27.8,30.28,WSW,246,6.9,6.9,66,0.00,CLR,,0.00,WeatherDisplay:10.37,2013-02-01 05:42:00,
2013-02-01 00:47:00,38.5,27.7,30.27,SW,222,6.9,6.9,65,0.00,CLR,,0.00,WeatherDisplay:10.37,2013-02-01 05:47:00,
2013-02-01 00:52:00,38.7,27.9,30.27,WSW,245,0.0,0.0,65,0.00,CLR,,0.00,WeatherDisplay:10.37,2013-02-01 05:52:00,
2013-02-01 00:57:00,38.7,27.9,30.27,West,263,3.5,3.5,65,0.00,CLR,,0.00,WeatherDisplay:10.37,2013-02-01 05:57:00,
2013-02-01 01:02:00,38.7,27.9,30.27,SSW,198,5.8,5.8,65,0.00,CLR,,0.00,WeatherDisplay:10.37,2013-02-01 06:02:00,
2013-02-01 01:07:00,38.8,27.7,30.27,West,276,6.9,6.9,64,0.00,CLR,,0.00,WeatherDisplay:10.37,2013-02-01 06:07:00,
2013-02-01 01:12:00,38.9,27.8,30.27,West,259,4.6,4.6,64,0.00,CLR,,0.00,WeatherDisplay:10.37,2013-02-01 06:12:00,
2013-02-01 01:17:00,39.2,28.0,30.26,West,268,6.9,6.9,64,0.00,CLR,,0.00,WeatherDisplay:10.37,2013-02-01 06:17:00,
2013-02-01 01:22:00,39.2,28.4,30.26,SW,225,2.3,2.3,65,0.00,CLR,,0.00,WeatherDisplay:10.37,2013-02-01 06:22:00,
2013-02-01 01:27:00,39.2,28.4,30.26,SW,229,3.5,3.5,65,0.00,CLR,,0.00,WeatherDisplay:10.37,2013-02-01 06:27:00,
2013-02-01 01:32:00,39.2,27.7,30.26,WSW,242,5.8,5.8,63,0.00,CLR,,0.00,WeatherDisplay:10.37,2013-02-01 06:32:00,
2013-02-01 01:37:00,39.3,28.1,30.26,SSW,200,4.0,4.0,64,0.00,CLR,,0.00,WeatherDisplay:10.37,2013-02-01 06:37:00,
2013-02-01 01:42:00,39.4,28.6,30.26,SW,236,3.5,3.5,65,0.00,CLR,,0.00,WeatherDisplay:10.37,2013-02-01 06:42:00,
2013-02-01 01:47:00,39.4,27.8,30.25,West,264,9.2,9.2,63,0.00,CLR,,0.00,WeatherDisplay:10.37,2013-02-01 06:47:00,
2013-02-01 01:52:00,39.7,28.1,30.25,WSW,252,6.9,6.9,63,0.00,CLR,,0.00,WeatherDisplay:10.37,2013-02-01 06:52:00,
2013-02-01 01:57:00,40.0,28.8,30.25,SW,225,6.9,6.9,64,0.00,CLR,,0.00,WeatherDisplay:10.37,2013-02-01 06:57:00,
2013-02-01 02:02:00,40.2,28.2,30.26,WSW,254,10.4,10.4,62,0.00,CLR,,0.00,WeatherDisplay:10.37,2013-02-01 07:02:00,
2013-02-01 02:07:00,40.6,28.6,30.25,WSW,254,9.0,9.0,62,0.00,CLR,,0.00,WeatherDisplay:10.37,2013-02-01 07:07:00,
2013-02-01 02:12:00,40.9,28.9,30.25,SE,141,9.2,9.2,62,0.00,CLR,,0.00,WeatherDisplay:10.37,2013-02-01 07:12:00,
2013-02-01 02:17:00,41.1,28.3,30.26,SW,232,9.2,9.2,60,0.00,CLR,,0.00,WeatherDisplay:10.37,2013-02-01 07:17:00,
2013-02-01 02:22:00,41.1,28.3,30.26,West,261,6.9,6.9,60,0.00,CLR,,0.00,WeatherDisplay:10.37,2013-02-01 07:22:00,
2013-02-01 02:27:00,41.1,28.3,30.26,West,277,13.8,13.8,60,0.00,CLR,,0.00,WeatherDisplay:10.37,2013-02-01 07:27:00,
2013-02-01 02:32:00,41.1,28.7,30.27,WSW,237,8.1,8.1,61,0.00,CLR,,0.00,WeatherDisplay:10.37,2013-02-01 07:32:00,
2013-02-01 02:37:00,41.1,28.3,30.27,WSW,241,12.0,12.0,60,0.00,CLR,,0.00,WeatherDisplay:10.37,2013-02-01 07:37:00,
2013-02-01 02:42:00,41.0,28.6,30.26,West,271,16.1,16.1,61,0.00,CLR,,0.00,WeatherDisplay:10.37,2013-02-01 07:42:00,
2013-02-01 02:47:00,40.8,28.8,30.26,WSW,255,11.5,11.5,62,0.00,CLR,,0.00,WeatherDisplay:10.37,2013-02-01 07:47:00,
2013-02-01 02:52:00,40.6,28.6,30.25,WSW,250,10.4,10.4,62,0.00,CLR,,0.00,WeatherDisplay:10.37,2013-02-01 07:52:00,
2013-02-01 02:57:00,40.3,28.3,30.25,WSW,252,11.5,11.5,62,0.00,CLR,,0.00,WeatherDisplay:10.37,2013-02-01 07:57:00,
2013-02-01 03:02:00,40.1,28.1,30.26,West,267,6.9,6.9,62,0.00,CLR,,0.00,WeatherDisplay:10.37,2013-02-01 08:02:00,
2013-02-01 03:07:00,39.9,28.3,30.25,West,275,17.3,17.3,63,0.00,CLR,,0.00,WeatherDisplay:10.37,2013-02-01 08:07:00,
2013-02-01 03:12:00,39.8,27.8,30.25,SW,217,12.0,12.0,62,0.00,CLR,,0.00,WeatherDisplay:10.37,2013-02-01 08:12:00,
2013-02-01 03:17:00,39.8,28.2,30.25,SSW,192,9.0,9.0,63,0.00,CLR,,0.00,WeatherDisplay:10.37,2013-02-01 08:17:00,
2013-02-01 03:22:00,39.7,28.1,30.25,West,271,6.9,6.9,63,0.00,CLR,,0.00,WeatherDisplay:10.37,2013-02-01 08:22:00,
2013-02-01 03:27:00,39.6,28.4,30.25,WSW,237,5.8,5.8,64,0.00,CLR,,0.00,WeatherDisplay:10.37,2013-02-01 08:27:00,
2013-02-01 03:32:00,39.5,28.7,30.24,WNW,303,13.8,13.8,65,0.00,CLR,,0.00,WeatherDisplay:10.37,2013-02-01 08:32:00,
2013-02-01 03:37:00,39.4,29.0,30.25,WSW,250,17.3,17.3,66,0.00,CLR,,0.00,WeatherDisplay:10.37,2013-02-01 08:37:00,
2013-02-01 03:42:00,39.4,28.6,30.25,West,274,10.4,10.4,65,0.00,CLR,,0.00,WeatherDisplay:10.37,2013-02-01 08:42:00,
2013-02-01 03:47:00,39.3,28.9,30.25,SW,232,11.5,11.5,66,0.00,CLR,,0.00,WeatherDisplay:10.37,2013-02-01 08:47:00,
2013-02-01 03:52:00,39.3,28.9,30.24,WSW,253,11.5,11.5,66,0.00,CLR,,0.00,WeatherDisplay:10.37,2013-02-01 08:52:00,
2013-02-01 03:57:00,39.2,28.8,30.25,West,262,11.5,11.5,66,0.00,CLR,,0.00,WeatherDisplay:10.37,2013-02-01 08:57:00,
2013-02-01 04:02:00,39.1,29.1,30.24,WSW,245,11.5,11.5,67,0.00,CLR,,0.00,WeatherDisplay:10.37,2013-02-01 09:02:00,
2013-02-01 04:07:00,38.9,29.2,30.24,WSW,243,11.5,11.5,68,0.00,CLR,,0.00,WeatherDisplay:10.37,2013-02-01 09:07:00,
2013-02-01 04:12:00,38.8,29.1,30.25,WSW,244,15.0,15.0,68,0.00,CLR,,0.00,WeatherDisplay:10.37,2013-02-01 09:12:00,
2013-02-01 04:17:00,38.7,29.0,30.25,WSW,254,13.8,13.8,68,0.00,CLR,,0.00,WeatherDisplay:10.37,2013-02-01 09:17:00,
2013-02-01 04:22:00,38.5,29.2,30.24,West,275,10.0,10.0,69,0.00,CLR,,0.00,WeatherDisplay:10.37,2013-02-01 09:22:00,
2013-02-01 04:27:00,38.3,29.0,30.25,WSW,246,10.4,10.4,69,0.00,CLR,,0.00,WeatherDisplay:10.37,2013-02-01 09:27:00,
2013-02-01 04:32:00,38.1,29.2,30.25,WNW,285,10.4,10.4,70,0.00,CLR,,0.00,WeatherDisplay:10.37,2013-02-01 09:32:00,
2013-02-01 04:37:00,37.9,29.3,30.25,WSW,246,4.6,4.6,71,0.00,CLR,,0.00,WeatherDisplay:10.37,2013-02-01 09:37:00,
2013-02-01 04:42:00,37.8,29.6,30.25,WSW,257,9.2,9.2,72,0.00,CLR,,0.00,WeatherDisplay:10.37,2013-02-01 09:42:00,
2013-02-01 04:47:00,37.8,29.9,30.25,West,268,15.0,15.0,73,0.00,CLR,,0.00,WeatherDisplay:10.37,2013-02-01 09:47:00,
2013-02-01 04:52:00,37.8,30.6,30.25,NW,304,9.2,9.2,75,0.00,CLR,,0.00,WeatherDisplay:10.37,2013-02-01 09:52:00,
2013-02-01 04:57:00,38.0,31.1,30.25,WNW,282,5.8,5.8,76,0.00,CLR,,0.00,WeatherDisplay:10.37,2013-02-01 09:57:00,
2013-02-01 05:02:00,37.9,31.0,30.25,West,279,11.5,11.5,76,0.00,CLR,,0.00,WeatherDisplay:10.37,2013-02-01 10:02:00,
2013-02-01 05:09:00,37.7,29.5,30.25,WSW,240,22.0,22.0,72,0.00,CLR,,0.00,WeatherDisplay:10.37,2013-02-01 10:09:00,
2013-02-01 05:14:00,37.5,27.5,30.25,West,278,16.1,16.1,67,0.00,CLR,,0.00,WeatherDisplay:10.37,2013-02-01 10:14:00,
2013-02-01 05:19:00,37.3,27.3,30.26,SW,236,12.7,12.7,67,0.00,CLR,,0.00,WeatherDisplay:10.37,2013-02-01 10:19:00,
2013-02-01 05:24:00,37.1,27.5,30.27,NW,313,12.7,12.7,68,0.00,CLR,,0.00,WeatherDisplay:10.37,2013-02-01 10:24:00,
2013-02-01 05:29:00,36.9,27.7,30.27,WSW,253,11.5,11.5,69,0.00,CLR,,0.00,WeatherDisplay:10.37,2013-02-01 10:29:00,
2013-02-01 05:34:00,36.7,27.5,30.27,NNW,333,11.5,11.5,69,0.00,CLR,,0.00,WeatherDisplay:10.37,2013-02-01 10:34:00,
2013-02-01 05:39:00,36.5,28.0,30.27,WNW,292,9.2,9.2,71,0.00,CLR,,0.00,WeatherDisplay:10.37,2013-02-01 10:39:00,
2013-02-01 05:44:00,36.3,28.5,30.28,NW,317,13.8,13.8,73,0.00,CLR,,0.00,WeatherDisplay:10.37,2013-02-01 10:44:00,
2013-02-01 05:49:00,36.0,28.5,30.29,WSW,244,6.9,6.9,74,0.00,CLR,,0.00,WeatherDisplay:10.37,2013-02-01 10:49:00,
2013-02-01 05:54:00,35.8,28.6,30.29,WNW,288,11.5,11.5,75,0.00,CLR,,0.00,WeatherDisplay:10.37,2013-02-01 10:54:00,
2013-02-01 05:59:00,35.6,28.5,30.29,WSW,251,15.0,15.0,75,0.00,CLR,,0.00,WeatherDisplay:10.37,2013-02-01 10:59:00,
2013-02-01 06:04:00,35.3,27.8,30.30,WSW,244,6.9,6.9,74,0.00,CLR,,0.00,WeatherDisplay:10.37,2013-02-01 11:04:00,
2013-02-01 06:09:00,35.1,27.3,30.31,WNW,283,9.2,9.2,73,0.00,CLR,,0.00,WeatherDisplay:10.37,2013-02-01 11:09:00,
2013-02-01 06:14:00,34.7,26.3,30.32,West,263,10.4,10.4,71,0.00,CLR,,0.00,WeatherDisplay:10.37,2013-02-01 11:14:00,
2013-02-01 06:19:00,34.4,24.9,30.33,West,275,13.8,13.8,68,0.00,CLR,,0.00,WeatherDisplay:10.37,2013-02-01 11:19:00,
2013-02-01 06:24:00,33.9,23.7,30.33,WSW,253,9.2,9.2,66,0.00,CLR,,0.00,WeatherDisplay:10.37,2013-02-01 11:24:00,
2013-02-01 06:29:00,33.7,24.3,30.33,West,269,4.6,4.6,68,0.00,CLR,,0.00,WeatherDisplay:10.37,2013-02-01 11:29:00,
2013-02-01 06:34:00,33.3,23.5,30.34,NW,312,11.5,11.5,67,0.00,CLR,,0.00,WeatherDisplay:10.37,2013-02-01 11:34:00,
2013-02-01 06:39:00,32.9,22.8,30.34,West,273,10.4,10.4,66,0.00,CLR,,0.00,WeatherDisplay:10.37,2013-02-01 11:39:00,
2013-02-01 06:44:00,32.5,21.3,30.34,WSW,257,10.4,10.4,63,0.00,CLR,,0.00,WeatherDisplay:10.37,2013-02-01 11:44:00,
2013-02-01 06:49:00,32.2,21.0,30.35,WNW,283,9.2,9.2,63,0.00,CLR,,0.00,WeatherDisplay:10.37,2013-02-01 11:49:00,
2013-02-01 06:54:00,31.8,19.5,30.35,West,262,12.7,12.7,60,0.00,CLR,,0.00,WeatherDisplay:10.37,2013-02-01 11:54:00,
2013-02-01 06:59:00,31.5,18.8,30.36,WSW,247,11.5,11.5,59,0.00,CLR,,0.00,WeatherDisplay:10.37,2013-02-01 11:59:00,
2013-02-01 07:04:00,31.1,17.6,30.36,WNW,299,9.2,9.2,57,0.00,CLR,,0.00,WeatherDisplay:10.37,2013-02-01 12:04:00,
2013-02-01 07:09:00,30.7,16.4,30.37,WSW,249,5.8,5.9,55,0.00,CLR,,0.00,WeatherDisplay:10.37,2013-02-01 12:09:00,
2013-02-01 07:14:00,30.4,14.9,30.38,West,271,9.2,9.2,52,0.00,CLR,,0.00,WeatherDisplay:10.37,2013-02-01 12:14:00,
2013-02-01 07:19:00,30.1,14.1,30.39,NW,304,8.0,8.0,51,0.00,CLR,,0.00,WeatherDisplay:10.37,2013-02-01 12:19:00,
2013-02-01 07:24:00,29.9,14.4,30.40,West,271,5.8,5.8,52,0.00,CLR,,0.00,WeatherDisplay:10.37,2013-02-01 12:24:00,
2013-02-01 07:29:00,29.6,13.7,30.40,WSW,244,10.4,10.4,51,0.00,CLR,,0.00,WeatherDisplay:10.37,2013-02-01 12:29:00,
2013-02-01 07:34:00,29.4,12.6,30.41,West,268,4.0,4.0,49,0.00,CLR,,0.00,WeatherDisplay:10.37,2013-02-01 12:34:00,
2013-02-01 07:39:00,29.2,11.4,30.41,SW,222,3.5,4.6,47,0.00,CLR,,0.00,WeatherDisplay:10.37,2013-02-01 12:39:00,
2013-02-01 07:44:00,29.0,12.2,30.42,WNW,291,5.8,5.8,49,0.00,CLR,,0.00,WeatherDisplay:10.37,2013-02-01 12:44:00,
2013-02-01 07:49:00,28.9,11.6,30.42,West,272,5.8,5.8,48,0.00,CLR,,0.00,WeatherDisplay:10.37,2013-02-01 12:49:00,
2013-02-01 07:54:00,28.8,11.1,30.42,West,265,7.0,7.0,47,0.00,CLR,,0.00,WeatherDisplay:10.37,2013-02-01 12:54:00,
2013-02-01 07:59:00,28.6,11.4,30.42,WNW,288,11.5,11.5,48,0.00,CLR,,0.00,WeatherDisplay:10.37,2013-02-01 12:59:00,
2013-02-01 08:04:00,28.5,10.8,30.43,WNW,303,9.2,9.2,47,0.00,CLR,,0.00,WeatherDisplay:10.37,2013-02-01 13:04:00,
2013-02-01 08:09:00,28.5,11.3,30.43,SW,221,5.8,5.8,48,0.00,CLR,,0.00,WeatherDisplay:10.37,2013-02-01 13:09:00,
2013-02-01 08:14:00,28.5,12.6,30.44,West,270,11.5,11.5,51,0.00,CLR,,0.00,WeatherDisplay:10.37,2013-02-01 13:14:00,
2013-02-01 08:19:00,28.4,12.1,30.45,WSW,254,5.8,5.8,50,0.00,CLR,,0.00,WeatherDisplay:10.37,2013-02-01 13:19:00,
2013-02-01 08:24:00,28.3,12.0,30.45,West,267,10.4,10.4,50,0.00,CLR,,0.00,WeatherDisplay:10.37,2013-02-01 13:24:00,
2013-02-01 08:29:00,28.3,12.9,30.46,WNW,290,9.2,9.2,52,0.00,CLR,,0.00,WeatherDisplay:10.37,2013-02-01 13:29:00,
2013-02-01 08:34:00,28.2,13.2,30.47,West,263,9.0,9.0,53,0.00,CLR,,0.00,WeatherDisplay:10.37,2013-02-01 13:34:00,
2013-02-01 08:39:00,28.1,13.6,30.47,NW,323,9.0,9.0,54,0.00,CLR,,0.00,WeatherDisplay:10.37,2013-02-01 13:39:00,
2013-02-01 08:44:00,28.0,13.9,30.47,West,269,11.5,11.5,55,0.00,CLR,,0.00,WeatherDisplay:10.37,2013-02-01 13:44:00,
2013-02-01 08:49:00,27.9,13.8,30.48,SW,223,6.0,6.0,55,0.00,CLR,,0.00,WeatherDisplay:10.37,2013-02-01 13:49:00,
2013-02-01 08:54:00,27.9,14.2,30.48,WNW,284,11.5,11.5,56,0.00,CLR,,0.00,WeatherDisplay:10.37,2013-02-01 13:54:00,
2013-02-01 08:59:00,27.9,13.8,30.48,WSW,251,5.8,5.8,55,0.00,CLR,,0.00,WeatherDisplay:10.37,2013-02-01 13:59:00,
2013-02-01 09:04:00,27.9,14.2,30.48,WSW,252,9.2,9.2,56,0.00,CLR,,0.00,WeatherDisplay:10.37,2013-02-01 14:04:00,
2013-02-01 09:09:00,28.0,13.9,30.49,SW,221,9.0,9.0,55,0.00,CLR,,0.00,WeatherDisplay:10.37,2013-02-01 14:09:00,
2013-02-01 09:14:00,28.0,13.1,30.48,West,271,12.7,12.7,53,0.00,CLR,,0.00,WeatherDisplay:10.37,2013-02-01 14:14:00,
2013-02-01 09:19:00,28.0,12.2,30.48,WNW,290,6.9,6.9,51,0.00,CLR,,0.00,WeatherDisplay:10.37,2013-02-01 14:19:00,
2013-02-01 09:24:00,28.1,13.1,30.49,WSW,252,3.5,5.7,53,0.00,CLR,,0.00,WeatherDisplay:10.37,2013-02-01 14:24:00,
2013-02-01 09:29:00,28.1,11.8,30.49,WNW,285,11.5,11.5,50,0.00,CLR,,0.00,WeatherDisplay:10.37,2013-02-01 14:29:00,
2013-02-01 09:34:00,28.3,12.9,30.49,West,267,5.0,5.0,52,0.00,CLR,,0.00,WeatherDisplay:10.37,2013-02-01 14:34:00,
2013-02-01 09:39:00,28.4,12.1,30.49,SW,229,11.5,11.5,50,0.00,CLR,,0.00,WeatherDisplay:10.37,2013-02-01 14:39:00,
2013-02-01 09:44:00,28.5,12.6,30.49,WSW,244,10.0,10.0,51,0.00,CLR,,0.00,WeatherDisplay:10.37,2013-02-01 14:44:00,
2013-02-01 09:49:00,28.6,12.7,30.49,West,267,3.5,3.5,51,0.00,CLR,,0.00,WeatherDisplay:10.37,2013-02-01 14:49:00,
2013-02-01 09:54:00,28.8,13.8,30.50,West,279,10.0,10.0,53,0.00,CLR,,0.00,WeatherDisplay:10.37,2013-02-01 14:54:00,
2013-02-01 09:59:00,29.0,12.7,30.50,WNW,294,8.1,8.1,50,0.00,CLR,,0.00,WeatherDisplay:10.37,2013-02-01 14:59:00,
2013-02-01 10:04:00,29.0,12.7,30.50,West,265,11.5,11.5,50,0.00,CLR,,0.00,WeatherDisplay:10.37,2013-02-01 15:04:00,
2013-02-01 10:09:00,29.1,13.2,30.50,West,265,8.1,8.1,51,0.00,CLR,,0.00,WeatherDisplay:10.37,2013-02-01 15:09:00,
2013-02-01 10:14:00,29.4,13.0,30.51,West,266,9.0,9.0,50,0.00,CLR,,0.00,WeatherDisplay:10.37,2013-02-01 15:14:00,
2013-02-01 10:19:00,29.7,13.3,30.51,West,266,11.5,11.5,50,0.00,CLR,,0.00,WeatherDisplay:10.37,2013-02-01 15:19:00,
2013-02-01 10:24:00,30.1,14.1,30.51,WSW,256,10.4,10.4,51,0.00,CLR,,0.00,WeatherDisplay:10.37,2013-02-01 15:24:00,
2013-02-01 10:29:00,30.7,14.2,30.51,SW,218,5.0,5.0,50,0.00,CLR,,0.00,WeatherDisplay:10.37,2013-02-01 15:29:00,
2013-02-01 10:34:00,31.2,13.8,30.51,NW,325,5.8,5.8,48,0.00,CLR,,0.00,WeatherDisplay:10.37,2013-02-01 15:34:00,
2013-02-01 10:39:00,31.6,11.6,30.52,West,279,11.5,11.5,43,0.00,CLR,,0.00,WeatherDisplay:10.37,2013-02-01 15:39:00,
2013-02-01 10:44:00,31.6,12.2,30.52,WNW,294,5.8,5.8,44,0.00,CLR,,0.00,WeatherDisplay:10.37,2013-02-01 15:44:00,
2013-02-01 10:49:00,31.9,11.4,30.53,West,280,5.0,5.0,42,0.00,CLR,,0.00,WeatherDisplay:10.37,2013-02-01 15:49:00,
2013-02-01 10:54:00,32.1,11.0,30.52,NW,319,9.2,9.2,41,0.00,CLR,,0.00,WeatherDisplay:10.37,2013-02-01 15:54:00,
2013-02-01 10:59:00,32.4,11.8,30.52,West,274,9.2,9.2,42,0.00,CLR,,0.00,WeatherDisplay:10.37,2013-02-01 15:59:00,
2013-02-01 11:04:00,32.7,11.6,30.52,WNW,287,6.9,6.9,41,0.00,CLR,,0.00,WeatherDisplay:10.37,2013-02-01 16:04:00,
2013-02-01 11:09:00,33.0,11.3,30.52,West,280,9.2,9.2,40,0.00,CLR,,0.00,WeatherDisplay:10.37,2013-02-01 16:09:00,
2013-02-01 11:14:00,33.2,9.7,30.52,WSW,250,16.1,16.1,37,0.00,CLR,,0.00,WeatherDisplay:10.37,2013-02-01 16:14:00,
2013-02-01 11:19:00,33.1,11.4,30.52,WNW,296,9.2,9.2,40,0.00,CLR,,0.00,WeatherDisplay:10.37,2013-02-01 16:19:00,
2013-02-01 11:24:00,33.1,10.2,30.52,West,269,11.5,11.5,38,0.00,CLR,,0.00,WeatherDisplay:10.37,2013-02-01 16:24:00,
2013-02-01 11:29:00,32.9,10.0,30.51,WSW,254,5.8,5.8,38,0.00,CLR,,0.00,WeatherDisplay:10.37,2013-02-01 16:29:00,
2013-02-01 11:34:00,33.0,9.5,30.51,SW,236,15.0,15.0,37,0.00,CLR,,0.00,WeatherDisplay:10.37,2013-02-01 16:34:00,
2013-02-01 11:39:00,32.9,8.8,30.52,WSW,250,9.2,9.2,36,0.00,CLR,,0.00,WeatherDisplay:10.37,2013-02-01 16:39:00,
2013-02-01 11:44:00,32.9,8.8,30.52,WSW,254,11.5,11.5,36,0.00,CLR,,0.00,WeatherDisplay:10.37,2013-02-01 16:44:00,
2013-02-01 11:49:00,33.0,8.3,30.51,West,279,11.5,11.5,35,0.00,CLR,,0.00,WeatherDisplay:10.37,2013-02-01 16:49:00,
2013-02-01 11:54:00,32.9,8.8,30.51,WSW,252,9.2,9.2,36,0.00,CLR,,0.00,WeatherDisplay:10.37,2013-02-01 16:54:00,
2013-02-01 11:59:00,33.0,8.9,30.52,WNW,302,6.9,6.9,36,0.00,CLR,,0.00,WeatherDisplay:10.37,2013-02-01 16:59:00,
2013-02-01 12:04:00,33.2,9.1,30.52,WSW,240,6.9,6.9,36,0.00,CLR,,0.00,WeatherDisplay:10.37,2013-02-01 17:04:00,
2013-02-01 12:09:00,33.6,10.1,30.51,NW,323,6.9,6.9,37,0.00,CLR,,0.00,WeatherDisplay:10.37,2013-02-01 17:09:00,
2013-02-01 12:14:00,34.0,9.2,30.51,West,261,11.5,11.5,35,0.00,CLR,,0.00,WeatherDisplay:10.37,2013-02-01 17:14:00,
2013-02-01 12:19:00,34.1,8.6,30.51,NW,307,12.7,12.7,34,0.00,CLR,,0.00,WeatherDisplay:10.37,2013-02-01 17:19:00,
2013-02-01 12:24:00,34.3,10.1,30.51,NW,313,6.9,6.9,36,0.00,CLR,,0.00,WeatherDisplay:10.37,2013-02-01 17:24:00,
2013-02-01 12:29:00,34.5,8.3,30.51,NW,309,10.4,10.4,33,0.00,CLR,,0.00,WeatherDisplay:10.37,2013-02-01 17:29:00,
2013-02-01 12:34:00,34.6,8.4,30.51,WNW,286,3.5,3.5,33,0.00,CLR,,0.00,WeatherDisplay:10.37,2013-02-01 17:34:00,
2013-02-01 12:39:00,35.0,10.1,30.51,West,265,5.0,5.0,35,0.00,CLR,,0.00,WeatherDisplay:10.37,2013-02-01 17:39:00,
2013-02-01 12:44:00,35.5,9.2,30.51,WNW,302,11.5,11.5,33,0.00,CLR,,0.00,WeatherDisplay:10.37,2013-02-01 17:44:00,
2013-02-01 12:49:00,35.8,9.5,30.51,West,269,8.0,8.0,33,0.00,CLR,,0.00,WeatherDisplay:10.37,2013-02-01 17:49:00,
2013-02-01 12:54:00,36.3,9.9,30.51,NW,315,5.8,5.8,33,0.00,CLR,,0.00,WeatherDisplay:10.37,2013-02-01 17:54:00,
2013-02-01 12:59:00,37.0,9.8,30.50,West,275,4.0,4.0,32,0.00,CLR,,0.00,WeatherDisplay:10.37,2013-02-01 17:59:00,
2013-02-01 13:04:00,37.8,10.5,30.50,NNW,329,3.5,3.5,32,0.00,CLR,,0.00,WeatherDisplay:10.37,2013-02-01 18:04:00,
2013-02-01 13:09:00,38.7,10.6,30.49,NNW,335,9.2,9.2,31,0.00,CLR,,0.00,WeatherDisplay:10.37,2013-02-01 18:09:00,
2013-02-01 13:14:00,39.6,11.4,30.49,SW,236,6.0,6.0,31,0.00,CLR,,0.00,WeatherDisplay:10.37,2013-02-01 18:14:00,
2013-02-01 13:19:00,40.2,10.4,30.48,WSW,238,9.2,9.2,29,0.00,CLR,,0.00,WeatherDisplay:10.37,2013-02-01 18:19:00,
2013-02-01 13:24:00,40.4,9.0,30.48,WSW,248,6.9,6.9,27,0.00,CLR,,0.00,WeatherDisplay:10.37,2013-02-01 18:24:00,
2013-02-01 13:29:00,40.5,10.7,30.47,WNW,282,3.0,3.0,29,0.00,CLR,,0.00,WeatherDisplay:10.37,2013-02-01 18:29:00,
2013-02-01 13:34:00,40.7,10.1,30.47,West,271,5.0,5.0,28,0.00,CLR,,0.00,WeatherDisplay:10.37,2013-02-01 18:34:00,
2013-02-01 13:39:00,41.1,11.2,30.47,NW,304,10.4,10.4,29,0.00,CLR,,0.00,WeatherDisplay:10.37,2013-02-01 18:39:00,
2013-02-01 13:44:00,41.4,10.7,30.47,WSW,251,5.8,5.8,28,0.00,CLR,,0.00,WeatherDisplay:10.37,2013-02-01 18:44:00,
2013-02-01 13:49:00,41.6,9.2,30.47,NW,309,10.4,10.4,26,0.00,CLR,,0.00,WeatherDisplay:10.37,2013-02-01 18:49:00,
2013-02-01 13:54:00,41.2,8.0,30.47,West,278,5.8,5.8,25,0.00,CLR,,0.00,WeatherDisplay:10.37,2013-02-01 18:54:00,
2013-02-01 13:59:00,41.1,8.8,30.47,West,265,10.0,10.0,26,0.00,CLR,,0.00,WeatherDisplay:10.37,2013-02-01 18:59:00,
2013-02-01 14:04:00,41.0,8.7,30.46,West,271,3.5,3.5,26,0.00,CLR,,0.00,WeatherDisplay:10.37,2013-02-01 19:04:00,
2013-02-01 14:09:00,41.3,9.8,30.47,WSW,237,6.9,6.9,27,0.00,CLR,,0.00,WeatherDisplay:10.37,2013-02-01 19:09:00,
2013-02-01 14:14:00,41.5,9.1,30.47,SW,214,4.6,4.6,26,0.00,CLR,,0.00,WeatherDisplay:10.37,2013-02-01 19:14:00,
2013-02-01 14:19:00,41.0,6.9,30.47,NW,315,5.0,5.0,24,0.00,CLR,,0.00,WeatherDisplay:10.37,2013-02-01 19:19:00,
2013-02-01 14:24:00,41.2,9.7,30.47,WSW,248,4.0,4.5,27,0.00,CLR,,0.00,WeatherDisplay:10.37,2013-02-01 19:24:00,
2013-02-01 14:29:00,41.7,8.4,30.47,West,263,1.1,1.1,25,0.00,CLR,,0.00,WeatherDisplay:10.37,2013-02-01 19:29:00,
2013-02-01 14:34:00,42.0,8.7,30.47,NW,307,4.6,4.6,25,0.00,CLR,,0.00,WeatherDisplay:10.37,2013-02-01 19:34:00,
2013-02-01 14:39:00,42.2,9.7,30.47,North,355,3.5,3.5,26,0.00,CLR,,0.00,WeatherDisplay:10.37,2013-02-01 19:39:00,
2013-02-01 14:44:00,42.2,8.8,30.47,SW,223,1.1,1.1,25,0.00,CLR,,0.00,WeatherDisplay:10.37,2013-02-01 19:44:00,
2013-02-01 14:49:00,42.4,9.9,30.47,WNW,293,3.5,3.5,26,0.00,CLR,,0.00,WeatherDisplay:10.37,2013-02-01 19:49:00,
2013-02-01 14:54:00,42.5,9.1,30.47,NW,307,6.9,6.9,25,0.00,CLR,,0.00,WeatherDisplay:10.37,2013-02-01 19:54:00,
2013-02-01 14:59:00,42.1,7.8,30.47,WSW,254,3.5,3.5,24,0.00,CLR,,0.00,WeatherDisplay:10.37,2013-02-01 19:59:00,
2013-02-01 15:04:00,41.4,6.3,30.47,SSW,209,10.4,10.4,23,0.00,CLR,,0.00,WeatherDisplay:10.37,2013-02-01 20:04:00,
2013-02-01 15:09:00,40.9,5.9,30.47,WSW,244,9.2,9.2,23,0.00,CLR,,0.00,WeatherDisplay:10.37,2013-02-01 20:09:00,
2013-02-01 15:14:00,40.4,8.2,30.47,WNW,284,5.8,5.8,26,0.00,CLR,,0.00,WeatherDisplay:10.37,2013-02-01 20:14:00,
2013-02-01 15:19:00,40.2,7.1,30.47,WNW,293,5.8,5.8,25,0.00,CLR,,0.00,WeatherDisplay:10.37,2013-02-01 20:19:00,
2013-02-01 15:24:00,40.1,8.7,30.48,West,277,3.5,3.5,27,0.00,CLR,,0.00,WeatherDisplay:10.37,2013-02-01 20:24:00,
2013-02-01 15:29:00,40.2,8.0,30.48,NW,314,12.7,12.7,26,0.00,CLR,,0.00,WeatherDisplay:10.37,2013-02-01 20:29:00,
2013-02-01 15:34:00,40.0,10.3,30.48,WSW,240,6.9,6.9,29,0.00,CLR,,0.00,WeatherDisplay:10.37,2013-02-01 20:34:00,
2013-02-01 15:39:00,39.9,9.4,30.47,West,267,12.0,12.0,28,0.00,CLR,,0.00,WeatherDisplay:10.37,2013-02-01 20:39:00,
2013-02-01 15:44:00,39.5,7.4,30.47,WSW,242,6.9,6.9,26,0.00,CLR,,0.00,WeatherDisplay:10.37,2013-02-01 20:44:00,
2013-02-01 15:49:00,39.4,8.9,30.48,West,281,5.8,5.8,28,0.00,CLR,,0.00,WeatherDisplay:10.37,2013-02-01 20:49:00,
2013-02-01 15:54:00,39.7,8.4,30.48,West,276,10.4,10.4,27,0.00,CLR,,0.00,WeatherDisplay:10.37,2013-02-01 20:54:00,
2013-02-01 15:59:00,39.7,8.4,30.48,West,275,4.6,4.6,27,0.00,CLR,,0.00,WeatherDisplay:10.37,2013-02-01 20:59:00,
2013-02-01 16:04:00,39.9,9.4,30.48,WNW,283,6.9,6.9,28,0.00,CLR,,0.00,WeatherDisplay:10.37,2013-02-01 21:04:00,
2013-02-01 16:09:00,40.2,8.0,30.48,South,177,4.6,4.6,26,0.00,CLR,,0.00,WeatherDisplay:10.37,2013-02-01 21:09:00,
2013-02-01 16:14:00,40.5,8.2,30.48,NNE,19,5.8,5.8,26,0.00,CLR,,0.00,WeatherDisplay:10.37,2013-02-01 21:14:00,
2013-02-01 16:20:00,40.8,7.7,30.48,WSW,246,1.0,6.0,25,0.00,CLR,,0.00,WeatherDisplay:10.37,2013-02-01 21:20:00,
2013-02-01 16:25:00,40.6,7.5,30.48,SW,218,4.6,4.6,25,0.00,CLR,,0.00,WeatherDisplay:10.37,2013-02-01 21:25:00,
2013-02-01 16:30:00,40.0,8.6,30.48,WSW,251,3.0,10.0,27,0.00,CLR,,0.00,WeatherDisplay:10.37,2013-02-01 21:30:00,
2013-02-01 16:35:00,39.2,8.0,30.48,WSW,241,4.0,4.0,27,0.00,CLR,,0.00,WeatherDisplay:10.37,2013-02-01 21:35:00,
2013-02-01 16:40:00,38.5,5.7,30.48,West,265,7.0,7.0,25,0.00,CLR,,0.00,WeatherDisplay:10.37,2013-02-01 21:40:00,
2013-02-01 16:45:00,38.1,7.8,30.48,WNW,283,2.3,2.3,28,0.00,CLR,,0.00,WeatherDisplay:10.37,2013-02-01 21:45:00,
2013-02-01 16:50:00,38.0,6.9,30.48,NW,321,3.5,3.5,27,0.00,CLR,,0.00,WeatherDisplay:10.37,2013-02-01 21:50:00,
2013-02-01 16:55:00,37.9,6.0,30.49,NW,323,3.0,3.0,26,0.00,CLR,,0.00,WeatherDisplay:10.37,2013-02-01 21:55:00,
2013-02-01 17:00:00,38.0,7.7,30.49,NW,306,3.5,3.5,28,0.00,CLR,,0.00,WeatherDisplay:10.37,2013-02-01 22:00:00,
2013-02-01 17:05:00,37.7,6.7,30.49,West,271,0.0,0.0,27,0.00,CLR,,0.00,WeatherDisplay:10.37,2013-02-01 22:05:00,
2013-02-01 17:10:00,37.5,8.1,30.49,West,271,0.0,0.0,29,0.00,CLR,,0.00,WeatherDisplay:10.37,2013-02-01 22:10:00,
2013-02-01 17:15:00,37.3,9.4,30.50,WSW,238,3.5,3.5,31,0.00,CLR,,0.00,WeatherDisplay:10.37,2013-02-01 22:15:00,
2013-02-01 17:20:00,36.8,8.2,30.50,WSW,250,10.4,10.4,30,0.00,CLR,,0.00,WeatherDisplay:10.37,2013-02-01 22:20:00,
2013-02-01 17:25:00,36.2,7.7,30.51,SW,232,3.5,3.5,30,0.00,CLR,,0.00,WeatherDisplay:10.37,2013-02-01 22:25:00,
2013-02-01 17:30:00,35.6,7.9,30.51,WSW,244,4.6,4.6,31,0.00,CLR,,0.00,WeatherDisplay:10.37,2013-02-01 22:30:00,
2013-02-01 17:35:00,35.2,8.9,30.51,WSW,254,3.5,3.5,33,0.00,CLR,,0.00,WeatherDisplay:10.37,2013-02-01 22:35:00,
2013-02-01 17:40:00,34.7,9.1,30.51,WSW,238,2.3,2.3,34,0.00,CLR,,0.00,WeatherDisplay:10.37,2013-02-01 22:40:00,
2013-02-01 17:45:00,34.3,9.4,30.51,WSW,254,2.3,2.3,35,0.00,CLR,,0.00,WeatherDisplay:10.37,2013-02-01 22:45:00,
2013-02-01 17:50:00,33.9,8.4,30.51,West,273,3.5,3.5,34,0.00,CLR,,0.00,WeatherDisplay:10.37,2013-02-01 22:50:00,
2013-02-01 17:55:00,33.4,9.3,30.51,WNW,299,3.5,3.5,36,0.00,CLR,,0.00,WeatherDisplay:10.37,2013-02-01 22:55:00,
2013-02-01 18:00:00,33.0,10.7,30.51,WNW,300,2.3,2.3,39,0.00,CLR,,0.00,WeatherDisplay:10.37,2013-02-01 23:00:00,
2013-02-01 18:05:00,32.6,9.8,30.52,WSW,251,3.5,3.5,38,0.00,CLR,,0.00,WeatherDisplay:10.37,2013-02-01 23:05:00,
2013-02-01 18:10:00,32.3,10.1,30.52,WSW,239,1.1,0.0,39,0.00,CLR,,0.00,WeatherDisplay:10.37,2013-02-01 23:10:00,
2013-02-01 18:15:00,31.8,10.2,30.53,NW,317,3.5,3.5,40,0.00,CLR,,0.00,WeatherDisplay:10.37,2013-02-01 23:15:00,
2013-02-01 18:20:00,31.5,9.4,30.54,SW,232,2.3,2.3,39,0.00,CLR,,0.00,WeatherDisplay:10.37,2013-02-01 23:20:00,
2013-02-01 18:25:00,31.2,10.7,30.54,WSW,241,0.0,0.0,42,0.00,CLR,,0.00,WeatherDisplay:10.37,2013-02-01 23:25:00,
2013-02-01 18:30:00,30.8,10.4,30.54,SW,236,0.0,0.0,42,0.00,CLR,,0.00,WeatherDisplay:10.37,2013-02-01 23:30:00,
2013-02-01 18:35:00,30.5,9.6,30.54,SW,230,2.3,2.3,41,0.00,CLR,,0.00,WeatherDisplay:10.37,2013-02-01 23:35:00,
2013-02-01 18:40:00,30.1,8.7,30.55,SW,225,3.5,3.5,40,0.00,CLR,,0.00,WeatherDisplay:10.37,2013-02-01 23:40:00,
2013-02-01 18:45:00,29.9,9.0,30.55,WSW,240,2.0,2.0,41,0.00,CLR,,0.00,WeatherDisplay:10.37,2013-02-01 23:45:00,
2013-02-01 18:50:00,29.8,8.9,30.55,SW,218,1.1,0.0,41,0.00,CLR,,0.00,WeatherDisplay:10.37,2013-02-01 23:50:00,
2013-02-01 18:56:00,29.6,9.8,30.56,SW,218,0.0,0.0,43,0.00,CLR,,0.00,WeatherDisplay:10.37,2013-02-01 23:56:00,
2013-02-01 19:01:00,29.4,9.6,30.56,SW,218,0.0,0.0,43,0.00,CLR,,0.00,WeatherDisplay:10.37,2013-02-02 00:01:00,
2013-02-01 19:06:00,29.1,9.9,30.56,SW,220,2.3,2.3,44,0.00,CLR,,0.00,WeatherDisplay:10.37,2013-02-02 00:06:00,
2013-02-01 19:11:00,29.0,10.3,30.56,SW,223,1.1,1.1,45,0.00,CLR,,0.00,WeatherDisplay:10.37,2013-02-02 00:11:00,
2013-02-01 19:16:00,28.8,11.1,30.56,SW,222,0.0,0.0,47,0.00,CLR,,0.00,WeatherDisplay:10.37,2013-02-02 00:16:00,
2013-02-01 19:21:00,28.7,10.0,30.57,SW,223,0.0,0.0,45,0.00,CLR,,0.00,WeatherDisplay:10.37,2013-02-02 00:21:00,
2013-02-01 19:26:00,28.5,10.3,30.57,SW,223,0.0,0.0,46,0.00,CLR,,0.00,WeatherDisplay:10.37,2013-02-02 00:26:00,
2013-02-01 19:31:00,28.5,10.8,30.57,SW,223,0.0,0.0,47,0.00,CLR,,0.00,WeatherDisplay:10.37,2013-02-02 00:31:00,
2013-02-01 19:36:00,28.4,10.7,30.57,SW,222,0.0,0.0,47,0.00,CLR,,0.00,WeatherDisplay:10.37,2013-02-02 00:36:00,
2013-02-01 19:41:00,28.3,11.1,30.57,SW,223,0.0,0.0,48,0.00,CLR,,0.00,WeatherDisplay:10.37,2013-02-02 00:41:00,
2013-02-01 19:46:00,28.1,10.9,30.57,SW,223,0.0,0.0,48,0.00,CLR,,0.00,WeatherDisplay:10.37,2013-02-02 00:46:00,
2013-02-01 19:51:00,28.0,10.8,30.58,SW,222,0.0,0.0,48,0.00,CLR,,0.00,WeatherDisplay:10.37,2013-02-02 00:51:00,
2013-02-01 19:56:00,27.8,10.6,30.57,SW,223,0.0,0.0,48,0.00,CLR,,0.00,WeatherDisplay:10.37,2013-02-02 00:56:00,
2013-02-01 20:01:00,27.6,10.4,30.58,SW,223,0.0,0.0,48,0.00,CLR,,0.00,WeatherDisplay:10.37,2013-02-02 01:01:00,
2013-02-01 20:06:00,27.5,11.3,30.58,SW,223,0.0,0.0,50,0.00,CLR,,0.00,WeatherDisplay:10.37,2013-02-02 01:06:00,
2013-02-01 20:11:00,27.4,12.1,30.58,SW,222,0.0,0.0,52,0.00,CLR,,0.00,WeatherDisplay:10.37,2013-02-02 01:11:00,
2013-02-01 20:16:00,27.3,11.5,30.58,SW,223,0.0,0.0,51,0.00,CLR,,0.00,WeatherDisplay:10.37,2013-02-02 01:16:00,
2013-02-01 20:21:00,27.2,11.4,30.58,SW,223,0.0,0.0,51,0.00,CLR,,0.00,WeatherDisplay:10.37,2013-02-02 01:21:00,
2013-02-01 20:26:00,27.0,12.1,30.59,SW,222,0.0,0.0,53,0.00,CLR,,0.00,WeatherDisplay:10.37,2013-02-02 01:26:00,
2013-02-01 20:31:00,26.9,12.5,30.59,SW,222,0.0,0.0,54,0.00,CLR,,0.00,WeatherDisplay:10.37,2013-02-02 01:31:00,
2013-02-01 20:36:00,26.7,12.7,30.59,SW,222,0.0,0.0,55,0.00,CLR,,0.00,WeatherDisplay:10.37,2013-02-02 01:36:00,
2013-02-01 20:41:00,26.6,12.2,30.58,SW,223,0.0,0.0,54,0.00,CLR,,0.00,WeatherDisplay:10.37,2013-02-02 01:41:00,
2013-02-01 20:46:00,26.5,12.5,30.58,SW,223,0.0,0.0,55,0.00,CLR,,0.00,WeatherDisplay:10.37,2013-02-02 01:46:00,
2013-02-01 20:51:00,26.3,13.1,30.58,SW,223,0.0,0.0,57,0.00,CLR,,0.00,WeatherDisplay:10.37,2013-02-02 01:51:00,
2013-02-01 20:56:00,26.2,13.8,30.58,SW,223,0.0,0.0,59,0.00,CLR,,0.00,WeatherDisplay:10.37,2013-02-02 01:56:00,
2013-02-01 21:01:00,26.1,13.7,30.57,SW,223,0.0,0.0,59,0.00,CLR,,0.00,WeatherDisplay:10.37,2013-02-02 02:01:00,
2013-02-01 21:06:00,26.0,13.6,30.57,SW,222,0.0,0.0,59,0.00,CLR,,0.00,WeatherDisplay:10.37,2013-02-02 02:06:00,
2013-02-01 21:11:00,25.8,13.4,30.57,SW,223,0.0,0.0,59,0.00,CLR,,0.00,WeatherDisplay:10.37,2013-02-02 02:11:00,
2013-02-01 21:16:00,25.7,13.7,30.58,SW,223,0.0,0.0,60,0.00,CLR,,0.00,WeatherDisplay:10.37,2013-02-02 02:16:00,
2013-02-01 21:21:00,25.6,13.6,30.58,SW,223,0.0,0.0,60,0.00,CLR,,0.00,WeatherDisplay:10.37,2013-02-02 02:21:00,
2013-02-01 21:26:00,25.4,13.4,30.57,SW,223,0.0,0.0,60,0.00,CLR,,0.00,WeatherDisplay:10.37,2013-02-02 02:26:00,
2013-02-01 21:31:00,25.3,13.3,30.58,SW,222,0.0,0.0,60,0.00,CLR,,0.00,WeatherDisplay:10.37,2013-02-02 02:31:00,
2013-02-01 21:36:00,25.2,14.0,30.58,SW,223,0.0,0.0,62,0.00,CLR,,0.00,WeatherDisplay:10.37,2013-02-02 02:36:00,
2013-02-01 21:41:00,25.1,13.9,30.58,SW,222,0.0,0.0,62,0.00,CLR,,0.00,WeatherDisplay:10.37,2013-02-02 02:41:00,
2013-02-01 21:46:00,25.0,14.2,30.58,SW,223,0.0,0.0,63,0.00,CLR,,0.00,WeatherDisplay:10.37,2013-02-02 02:46:00,
2013-02-01 21:51:00,24.8,14.0,30.58,SW,223,0.0,0.0,63,0.00,CLR,,0.00,WeatherDisplay:10.37,2013-02-02 02:51:00,
2013-02-01 21:56:00,24.6,14.5,30.59,SW,223,0.0,0.0,65,0.00,CLR,,0.00,WeatherDisplay:10.37,2013-02-02 02:56:00,
2013-02-01 22:02:00,24.5,14.4,30.58,SW,223,0.0,0.0,65,0.00,CLR,,0.00,WeatherDisplay:10.37,2013-02-02 03:02:00,
2013-02-01 22:07:00,24.3,14.2,30.59,SW,223,0.0,0.0,65,0.00,CLR,,0.00,WeatherDisplay:10.37,2013-02-02 03:07:00,
2013-02-01 22:12:00,24.2,14.1,30.58,SW,223,0.0,0.0,65,0.00,CLR,,0.00,WeatherDisplay:10.37,2013-02-02 03:12:00,
2013-02-01 22:17:00,24.0,13.9,30.58,SW,223,0.0,0.0,65,0.00,CLR,,0.00,WeatherDisplay:10.37,2013-02-02 03:17:00,
2013-02-01 22:22:00,24.0,14.3,30.58,SW,222,0.0,0.0,66,0.00,CLR,,0.00,WeatherDisplay:10.37,2013-02-02 03:22:00,
2013-02-01 22:27:00,23.9,14.2,30.58,SW,222,0.0,0.0,66,0.00,CLR,,0.00,WeatherDisplay:10.37,2013-02-02 03:27:00,
2013-02-01 22:32:00,23.8,14.1,30.59,SW,223,0.0,0.0,66,0.00,CLR,,0.00,WeatherDisplay:10.37,2013-02-02 03:32:00,
2013-02-01 22:37:00,23.6,13.9,30.59,SW,223,0.0,0.0,66,0.00,CLR,,0.00,WeatherDisplay:10.37,2013-02-02 03:37:00,
2013-02-01 22:42:00,23.5,13.8,30.59,SW,223,0.0,0.0,66,0.00,CLR,,0.00,WeatherDisplay:10.37,2013-02-02 03:42:00,
2013-02-01 22:47:00,23.5,14.1,30.59,SW,223,0.0,0.0,67,0.00,CLR,,0.00,WeatherDisplay:10.37,2013-02-02 03:47:00,
2013-02-01 22:52:00,23.4,14.4,30.59,SW,223,0.0,0.0,68,0.00,CLR,,0.00,WeatherDisplay:10.37,2013-02-02 03:52:00,
2013-02-01 22:57:00,23.3,14.3,30.59,SW,223,0.0,0.0,68,0.00,CLR,,0.00,WeatherDisplay:10.37,2013-02-02 03:57:00,
2013-02-01 23:02:00,23.2,14.5,30.59,SW,222,0.0,0.0,69,0.00,CLR,,0.00,WeatherDisplay:10.37,2013-02-02 04:02:00,
2013-02-01 23:07:00,23.1,14.4,30.60,SW,223,0.0,0.0,69,0.00,CLR,,0.00,WeatherDisplay:10.37,2013-02-02 04:07:00,
2013-02-01 23:12:00,23.0,14.3,30.60,SW,223,0.0,0.0,69,0.00,CLR,,0.00,WeatherDisplay:10.37,2013-02-02 04:12:00,
2013-02-01 23:17:00,22.9,14.6,30.59,SW,222,0.0,0.0,70,0.00,CLR,,0.00,WeatherDisplay:10.37,2013-02-02 04:17:00,
2013-02-01 23:22:00,22.8,14.8,30.59,SW,223,0.0,0.0,71,0.00,CLR,,0.00,WeatherDisplay:10.37,2013-02-02 04:22:00,
2013-02-01 23:27:00,22.7,14.7,30.59,SW,223,0.0,0.0,71,0.00,CLR,,0.00,WeatherDisplay:10.37,2013-02-02 04:27:00,
2013-02-01 23:32:00,22.6,14.6,30.58,SW,223,0.0,0.0,71,0.00,CLR,,0.00,WeatherDisplay:10.37,2013-02-02 04:32:00,
2013-02-01 23:37:00,22.5,14.5,30.58,SW,222,0.0,0.0,71,0.00,CLR,,0.00,WeatherDisplay:10.37,2013-02-02 04:37:00,
2013-02-01 23:42:00,22.5,14.8,30.58,SW,223,0.0,0.0,72,0.00,CLR,,0.00,WeatherDisplay:10.37,2013-02-02 04:42:00,
2013-02-01 23:47:00,22.4,14.7,30.58,SW,223,0.0,0.0,72,0.00,CLR,,0.00,WeatherDisplay:10.37,2013-02-02 04:47:00,
2013-02-01 23:52:00,22.4,14.7,30.58,SW,223,0.0,0.0,72,0.00,CLR,,0.00,WeatherDisplay:10.37,2013-02-02 04:52:00,
2013-02-01 23:57:00,22.2,14.5,30.58,SW,223,0.0,0.0,72,0.00,CLR,,0.00,WeatherDisplay:10.37,2013-02-02 04:57:00,